sensor_id;sensor_type;location;lat;lon;timestamp;pressure;altitude;pressure_sealevel;temperature;humidity
49367;BME280;35245;52.026;8.540;2023-02-01T00:00:30;33349.25;;;-145.42;100.00
49367;BME280;35245;52.026;8.540;2023-02-01T00:02:58;31834.03;;;-145.42;100.00
49367;BME280;35245;52.026;8.540;2023-02-01T00:05:26;31329.09;;;-145.42;100.00
49367;BME280;35245;52.026;8.540;2023-02-01T00:07:54;32339.06;;;-145.42;100.00
49367;BME280;35245;52.026;8.540;2023-02-01T00:10:21;33349.25;;;-145.42;100.00
49367;BME280;35245;52.026;8.540;2023-02-01T00:12:49;32844.13;;;-145.42;100.00
49367;BME280;35245;52.026;8.540;2023-02-01T00:15:16;34612.41;;;-145.42;100.00
49367;BME280;35245;52.026;8.540;2023-02-01T00:17:43;34865.06;;;-145.42;100.00
49367;BME280;35245;52.026;8.540;2023-02-01T00:20:11;31329.09;;;-145.42;100.00
49367;BME280;35245;52.026;8.540;2023-02-01T00:22:38;33601.84;;;-145.42;100.00
49367;BME280;35245;52.026;8.540;2023-02-01T00:25:08;32086.53;;;-145.42;100.00
49367;BME280;35245;52.026;8.540;2023-02-01T00:27:35;33096.69;;;-145.42;100.00
49367;BME280;35245;52.026;8.540;2023-02-01T00:30:03;31834.03;;;-145.42;100.00
49367;BME280;35245;52.026;8.540;2023-02-01T00:32:30;31076.66;;;-145.42;100.00
49367;BME280;35245;52.026;8.540;2023-02-01T00:34:58;29814.66;;;-145.42;100.00
49367;BME280;35245;52.026;8.540;2023-02-01T00:37:25;28553.06;;;-145.42;100.00
49367;BME280;35245;52.026;8.540;2023-02-01T00:39:52;31076.66;;;-145.42;100.00
49367;BME280;35245;52.026;8.540;2023-02-01T00:42:22;31329.09;;;-145.42;100.00
49367;BME280;35245;52.026;8.540;2023-02-01T00:44:50;29562.31;;;-145.42;100.00
49367;BME280;35245;52.026;8.540;2023-02-01T00:47:17;32339.06;;;-145.42;100.00
49367;BME280;35245;52.026;8.540;2023-02-01T00:49:45;32591.56;;;-145.42;100.00
49367;BME280;35245;52.026;8.540;2023-02-01T00:52:12;32086.53;;;-145.42;100.00
49367;BME280;35245;52.026;8.540;2023-02-01T00:54:40;34612.41;;;-145.42;100.00
49367;BME280;35245;52.026;8.540;2023-02-01T00:57:07;34107.09;;;-145.42;100.00
49367;BME280;35245;52.026;8.540;2023-02-01T00:59:35;37803.63;;;-145.42;100.00
49367;BME280;35245;52.026;8.540;2023-02-01T01:02:02;35137.50;;;-145.42;100.00
49367;BME280;35245;52.026;8.540;2023-02-01T01:04:30;32591.56;;;-145.42;100.00
49367;BME280;35245;52.026;8.540;2023-02-01T01:06:57;33601.84;;;-145.42;100.00
49367;BME280;35245;52.026;8.540;2023-02-01T01:09:24;30824.22;;;-145.42;100.00
49367;BME280;35245;52.026;8.540;2023-02-01T01:11:51;29814.66;;;-145.42;100.00
49367;BME280;35245;52.026;8.540;2023-02-01T01:14:18;40667.25;;;-145.42;100.00
49367;BME280;35245;52.026;8.540;2023-02-01T01:16:47;31076.66;;;-145.42;100.00
49367;BME280;35245;52.026;8.540;2023-02-01T01:19:16;36900.88;;;-145.42;100.00
49367;BME280;35245;52.026;8.540;2023-02-01T01:21:43;39419.97;;;-145.42;100.00
49367;BME280;35245;52.026;8.540;2023-02-01T01:24:10;37258.41;;;-145.42;100.00
49367;BME280;35245;52.026;8.540;2023-02-01T01:26:37;36594.75;;;-145.42;100.00
49367;BME280;35245;52.026;8.540;2023-02-01T01:29:05;33601.84;;;-145.42;100.00
49367;BME280;35245;52.026;8.540;2023-02-01T01:31:32;33096.69;;;-145.42;100.00
49367;BME280;35245;52.026;8.540;2023-02-01T01:34:01;31834.03;;;-145.42;100.00
49367;BME280;35245;52.026;8.540;2023-02-01T01:36:29;33349.25;;;-145.42;100.00
49367;BME280;35245;52.026;8.540;2023-02-01T01:38:56;31581.56;;;-145.42;100.00
49367;BME280;35245;52.026;8.540;2023-02-01T01:41:26;29057.66;;;-145.42;100.00
49367;BME280;35245;52.026;8.540;2023-02-01T01:43:57;26787.53;;;-145.42;100.00
49367;BME280;35245;52.026;8.540;2023-02-01T01:46:27;26787.53;;;-145.42;100.00
49367;BME280;35245;52.026;8.540;2023-02-01T01:49:05;27796.31;;;-145.42;100.00
49367;BME280;35245;52.026;8.540;2023-02-01T01:51:38;23762.75;;;-145.42;100.00
49367;BME280;35245;52.026;8.540;2023-02-01T01:54:14;26031.09;;;-145.42;100.00
49367;BME280;35245;52.026;8.540;2023-02-01T01:56:44;25022.78;;;-145.42;100.00
49367;BME280;35245;52.026;8.540;2023-02-01T01:59:13;25779.00;;;-145.42;100.00
49367;BME280;35245;52.026;8.540;2023-02-01T02:01:41;26535.38;;;-145.42;100.00
49367;BME280;35245;52.026;8.540;2023-02-01T02:04:10;30319.41;;;-145.42;100.00
49367;BME280;35245;52.026;8.540;2023-02-01T02:06:42;27796.31;;;-145.42;100.00
49367;BME280;35245;52.026;8.540;2023-02-01T02:09:11;24014.72;;;-145.42;100.00
49367;BME280;35245;52.026;8.540;2023-02-01T02:11:38;41541.19;;;-145.42;100.00
49367;BME280;35245;52.026;8.540;2023-02-01T02:14:08;29309.97;;;-145.42;100.00
49367;BME280;35245;52.026;8.540;2023-02-01T02:20:20;30319.41;;;-145.42;100.00
49367;BME280;35245;52.026;8.540;2023-02-01T02:23:38;29309.97;;;-145.42;100.00
49367;BME280;35245;52.026;8.540;2023-02-01T02:30:08;30571.81;;;-145.42;100.00
49367;BME280;35245;52.026;8.540;2023-02-01T02:33:36;29562.31;;;-145.42;100.00
49367;BME280;35245;52.026;8.540;2023-02-01T02:36:10;36304.44;;;-145.42;100.00
49367;BME280;35245;52.026;8.540;2023-02-01T02:38:49;37588.28;;;-145.42;100.00
49367;BME280;35245;52.026;8.540;2023-02-01T02:41:23;36584.88;;;-145.42;100.00
49367;BME280;35245;52.026;8.540;2023-02-01T02:44:24;36298.53;;;-145.42;100.00
49367;BME280;35245;52.026;8.540;2023-02-01T02:47:21;37775.97;;;-145.42;100.00
49367;BME280;35245;52.026;8.540;2023-02-01T02:50:03;38593.94;;;-145.42;100.00
49367;BME280;35245;52.026;8.540;2023-02-01T02:53:07;36083.28;;;-145.42;100.00
49367;BME280;35245;52.026;8.540;2023-02-01T02:55:54;36432.81;;;-145.42;100.00
49367;BME280;35245;52.026;8.540;2023-02-01T02:58:39;36920.63;;;-145.42;100.00
49367;BME280;35245;52.026;8.540;2023-02-01T03:01:25;38169.13;;;-145.42;100.00
49367;BME280;35245;52.026;8.540;2023-02-01T03:04:10;39394.28;;;-145.42;100.00
49367;BME280;35245;52.026;8.540;2023-02-01T03:06:45;41914.97;;;-145.42;100.00
49367;BME280;35245;52.026;8.540;2023-02-01T03:09:20;42816.88;;;-145.42;100.00
49367;BME280;35245;52.026;8.540;2023-02-01T03:11:50;44247.28;;;-145.42;100.00
49367;BME280;35245;52.026;8.540;2023-02-01T03:14:40;43804.06;;;-145.42;100.00
49367;BME280;35245;52.026;8.540;2023-02-01T03:17:13;44421.41;;;-145.42;100.00
49367;BME280;35245;52.026;8.540;2023-02-01T03:19:45;46058.31;;;-145.42;100.00
49367;BME280;35245;52.026;8.540;2023-02-01T03:22:20;45513.94;;;-145.42;100.00
49367;BME280;35245;52.026;8.540;2023-02-01T03:24:52;46444.38;;;-145.42;100.00
49367;BME280;35245;52.026;8.540;2023-02-01T03:27:27;47412.66;;;-145.42;100.00
49367;BME280;35245;52.026;8.540;2023-02-01T03:30:06;47725.59;;;-145.42;100.00
49367;BME280;35245;52.026;8.540;2023-02-01T03:32:37;47866.19;;;-145.42;100.00
49367;BME280;35245;52.026;8.540;2023-02-01T03:35:23;48474.31;;;-145.42;100.00
49367;BME280;35245;52.026;8.540;2023-02-01T03:38:01;48761.56;;;-145.42;100.00
49367;BME280;35245;52.026;8.540;2023-02-01T03:40:33;49722.47;;;-145.42;100.00
49367;BME280;35245;52.026;8.540;2023-02-01T03:43:05;49526.31;;;-145.42;100.00
49367;BME280;35245;52.026;8.540;2023-02-01T03:45:39;49254.88;;;-145.42;100.00
49367;BME280;35245;52.026;8.540;2023-02-01T03:48:09;49385.63;;;-145.42;100.00
49367;BME280;35245;52.026;8.540;2023-02-01T03:50:44;49141.94;;;-145.42;100.00
49367;BME280;35245;52.026;8.540;2023-02-01T03:53:18;49326.19;;;-145.42;100.00
49367;BME280;35245;52.026;8.540;2023-02-01T03:55:47;49118.16;;;-145.42;100.00
49367;BME280;35245;52.026;8.540;2023-02-01T03:58:17;49042.88;;;-145.42;100.00
49367;BME280;35245;52.026;8.540;2023-02-01T04:00:50;49411.41;;;-145.42;100.00
49367;BME280;35245;52.026;8.540;2023-02-01T04:03:17;49550.09;;;-145.42;100.00
49367;BME280;35245;52.026;8.540;2023-02-01T04:05:44;49760.13;;;-145.42;100.00
49367;BME280;35245;52.026;8.540;2023-02-01T04:08:11;49197.41;;;-145.42;100.00
49367;BME280;35245;52.026;8.540;2023-02-01T04:10:40;49203.34;;;-145.42;100.00
49367;BME280;35245;52.026;8.540;2023-02-01T04:13:08;48924.00;;;-145.42;100.00
49367;BME280;35245;52.026;8.540;2023-02-01T04:15:35;49128.06;;;-145.42;100.00
49367;BME280;35245;52.026;8.540;2023-02-01T04:18:02;49877.06;;;-145.42;100.00
49367;BME280;35245;52.026;8.540;2023-02-01T04:20:29;49728.44;;;-145.42;100.00
49367;BME280;35245;52.026;8.540;2023-02-01T04:22:57;49785.91;;;-145.42;100.00
49367;BME280;35245;52.026;8.540;2023-02-01T04:25:24;49639.25;;;-145.42;100.00
49367;BME280;35245;52.026;8.540;2023-02-01T04:27:53;49678.88;;;-145.42;100.00
49367;BME280;35245;52.026;8.540;2023-02-01T04:30:20;49708.63;;;-145.42;100.00
49367;BME280;35245;52.026;8.540;2023-02-01T04:32:49;49692.75;;;-145.42;100.00
49367;BME280;35245;52.026;8.540;2023-02-01T04:35:16;49789.84;;;-145.42;100.00
49367;BME280;35245;52.026;8.540;2023-02-01T04:37:44;49427.25;;;-145.42;100.00
49367;BME280;35245;52.026;8.540;2023-02-01T04:40:12;49088.44;;;-145.42;100.00
49367;BME280;35245;52.026;8.540;2023-02-01T04:42:39;40240.25;;;-145.42;100.00
49367;BME280;35245;52.026;8.540;2023-02-01T04:45:09;28553.06;;;-145.42;100.00
49367;BME280;35245;52.026;8.540;2023-02-01T04:47:36;21999.38;;;-145.42;100.00
49367;BME280;35245;52.026;8.540;2023-02-01T04:50:04;7419.22;;;-145.42;100.00
49367;BME280;35245;52.026;8.540;2023-02-01T04:52:33;1903.16;;;-145.42;100.00
49367;BME280;35245;52.026;8.540;2023-02-01T04:55:00;-2353.88;;;-145.42;100.00
49367;BME280;35245;52.026;8.540;2023-02-01T04:57:28;-2103.59;;;-145.42;100.00
49367;BME280;35245;52.026;8.540;2023-02-01T04:59:56;-14100.28;;;-145.42;100.00
49367;BME280;35245;52.026;8.540;2023-02-01T05:02:24;-8107.84;;;-145.42;100.00
49367;BME280;35245;52.026;8.540;2023-02-01T05:04:52;-14100.28;;;-145.42;100.00
49367;BME280;35245;52.026;8.540;2023-02-01T05:07:19;-4855.81;;;-145.42;100.00
49367;BME280;35245;52.026;8.540;2023-02-01T05:09:47;23845.41;;;-145.42;100.00
49367;BME280;35245;52.026;8.540;2023-02-01T05:12:14;-8923.84;;;-145.42;100.00
49367;BME280;35245;52.026;8.540;2023-02-01T05:14:58;-14100.28;;;-145.42;100.00
49367;BME280;35245;52.026;8.540;2023-02-01T05:17:27;-7106.16;;;-145.42;100.00
49367;BME280;35245;52.026;8.540;2023-02-01T05:19:54;4006.00;;;-145.42;100.00
49367;BME280;35245;52.026;8.540;2023-02-01T05:22:21;2709.69;;;-145.42;100.00
49367;BME280;35245;52.026;8.540;2023-02-01T05:24:49;-14100.28;;;-145.42;100.00
49367;BME280;35245;52.026;8.540;2023-02-01T05:27:16;2404.28;;;-145.42;100.00
49367;BME280;35245;52.026;8.540;2023-02-01T05:29:43;10431.31;;;-145.42;100.00
49367;BME280;35245;52.026;8.540;2023-02-01T05:32:10;15708.09;;;-145.42;100.00
49367;BME280;35245;52.026;8.540;2023-02-01T05:34:41;9427.03;;;-145.42;100.00
49367;BME280;35245;52.026;8.540;2023-02-01T05:37:08;901.06;;;-145.42;100.00
49367;BME280;35245;52.026;8.540;2023-02-01T05:39:36;7921.06;;;-145.42;100.00
49367;BME280;35245;52.026;8.540;2023-02-01T05:42:03;12691.91;;;-145.42;100.00
49367;BME280;35245;52.026;8.540;2023-02-01T05:44:30;14702.44;;;-145.42;100.00
49367;BME280;35245;52.026;8.540;2023-02-01T05:46:57;16462.53;;;-145.42;100.00
49367;BME280;35245;52.026;8.540;2023-02-01T05:49:24;17217.09;;;-145.42;100.00
49367;BME280;35245;52.026;8.540;2023-02-01T05:51:53;12691.91;;;-145.42;100.00
49367;BME280;35245;52.026;8.540;2023-02-01T05:54:20;35623.19;;;-145.42;100.00
49367;BME280;35245;52.026;8.540;2023-02-01T05:56:47;38479.31;;;-145.42;100.00
49367;BME280;35245;52.026;8.540;2023-02-01T05:59:14;26283.22;;;-145.42;100.00
49367;BME280;35245;52.026;8.540;2023-02-01T06:01:41;21495.69;;;-145.42;100.00
49367;BME280;35245;52.026;8.540;2023-02-01T06:04:09;21999.38;;;-145.42;100.00
49367;BME280;35245;52.026;8.540;2023-02-01T06:06:36;26283.22;;;-145.42;100.00
49367;BME280;35245;52.026;8.540;2023-02-01T06:09:05;23258.84;;;-145.42;100.00
49367;BME280;35245;52.026;8.540;2023-02-01T06:11:32;23762.75;;;-145.42;100.00
49367;BME280;35245;52.026;8.540;2023-02-01T06:13:59;29057.66;;;-145.42;100.00
49367;BME280;35245;52.026;8.540;2023-02-01T06:16:27;23006.91;;;-145.42;100.00
49367;BME280;35245;52.026;8.540;2023-02-01T06:18:54;23006.91;;;-145.42;100.00
49367;BME280;35245;52.026;8.540;2023-02-01T06:21:21;25779.00;;;-145.42;100.00
49367;BME280;35245;52.026;8.540;2023-02-01T06:23:50;27039.69;;;-145.42;100.00
49367;BME280;35245;52.026;8.540;2023-02-01T06:26:18;26535.38;;;-145.42;100.00
49367;BME280;35245;52.026;8.540;2023-02-01T06:28:46;24770.75;;;-145.42;100.00
49367;BME280;35245;52.026;8.540;2023-02-01T06:31:13;25779.00;;;-145.42;100.00
49367;BME280;35245;52.026;8.540;2023-02-01T06:33:40;30067.03;;;-145.42;100.00
49367;BME280;35245;52.026;8.540;2023-02-01T06:36:10;31076.66;;;-145.42;100.00
49367;BME280;35245;52.026;8.540;2023-02-01T06:38:38;30067.03;;;-145.42;100.00
49367;BME280;35245;52.026;8.540;2023-02-01T06:41:05;31834.03;;;-145.42;100.00
49367;BME280;35245;52.026;8.540;2023-02-01T06:43:34;32844.13;;;-145.42;100.00
49367;BME280;35245;52.026;8.540;2023-02-01T06:46:05;41284.16;;;-145.42;100.00
49367;BME280;35245;52.026;8.540;2023-02-01T06:48:32;45149.72;;;-145.42;100.00
49367;BME280;35245;52.026;8.540;2023-02-01T06:51:00;43267.91;;;-145.42;100.00
49367;BME280;35245;52.026;8.540;2023-02-01T06:53:28;44767.75;;;-145.42;100.00
49367;BME280;35245;52.026;8.540;2023-02-01T06:55:58;41472.00;;;-145.42;100.00
49367;BME280;35245;52.026;8.540;2023-02-01T06:58:29;42162.16;;;-145.42;100.00
49367;BME280;35245;52.026;8.540;2023-02-01T07:00:58;44666.81;;;-145.42;100.00
49367;BME280;35245;52.026;8.540;2023-02-01T07:03:25;44951.81;;;-145.42;100.00
49367;BME280;35245;52.026;8.540;2023-02-01T07:05:56;44144.38;;;-145.42;100.00
49367;BME280;35245;52.026;8.540;2023-02-01T07:08:26;41644.03;;;-145.42;100.00
49367;BME280;35245;52.026;8.540;2023-02-01T07:10:54;39514.84;;;-145.42;100.00
49367;BME280;35245;52.026;8.540;2023-02-01T07:13:21;38289.66;;;-145.42;100.00
49367;BME280;35245;52.026;8.540;2023-02-01T07:15:48;40086.06;;;-145.42;100.00
49367;BME280;35245;52.026;8.540;2023-02-01T07:18:17;38866.63;;;-145.42;100.00
49367;BME280;35245;52.026;8.540;2023-02-01T07:20:50;41335.56;;;-145.42;100.00
49367;BME280;35245;52.026;8.540;2023-02-01T07:23:18;39376.50;;;-145.42;100.00
49367;BME280;35245;52.026;8.540;2023-02-01T07:25:46;40657.38;;;-145.42;100.00
49367;BME280;35245;52.026;8.540;2023-02-01T07:28:13;41135.84;;;-145.42;100.00
49367;BME280;35245;52.026;8.540;2023-02-01T07:30:40;39293.47;;;-145.42;100.00
49367;BME280;35245;52.026;8.540;2023-02-01T07:33:07;43085.91;;;-145.42;100.00
49367;BME280;35245;52.026;8.540;2023-02-01T07:35:36;45781.16;;;-145.42;100.00
49367;BME280;35245;52.026;8.540;2023-02-01T07:38:03;45070.56;;;-145.42;100.00
49367;BME280;35245;52.026;8.540;2023-02-01T07:40:30;45460.47;;;-145.42;100.00
49367;BME280;35245;52.026;8.540;2023-02-01T07:42:58;46388.94;;;-145.42;100.00
49367;BME280;35245;52.026;8.540;2023-02-01T07:45:25;45757.41;;;-145.42;100.00
49367;BME280;35245;52.026;8.540;2023-02-01T07:47:53;47078.00;;;-145.42;100.00
49367;BME280;35245;52.026;8.540;2023-02-01T07:50:20;45965.25;;;-145.42;100.00
49367;BME280;35245;52.026;8.540;2023-02-01T07:52:48;46521.59;;;-145.42;100.00
49367;BME280;35245;52.026;8.540;2023-02-01T07:55:16;47341.38;;;-145.42;100.00
49367;BME280;35245;52.026;8.540;2023-02-01T07:57:43;47361.19;;;-145.42;100.00
49367;BME280;35245;52.026;8.540;2023-02-01T08:00:12;46561.19;;;-145.42;100.00
49367;BME280;35245;52.026;8.540;2023-02-01T08:02:57;46367.16;;;-145.42;100.00
49367;BME280;35245;52.026;8.540;2023-02-01T08:05:25;44201.78;;;-145.42;100.00
49367;BME280;35245;52.026;8.540;2023-02-01T08:07:53;43750.63;;;-145.42;100.00
49367;BME280;35245;52.026;8.540;2023-02-01T08:10:21;45027.00;;;-145.42;100.00
49367;BME280;35245;52.026;8.540;2023-02-01T08:12:48;44969.63;;;-145.42;100.00
49367;BME280;35245;52.026;8.540;2023-02-01T08:15:17;43529.03;;;-145.42;100.00
49367;BME280;35245;52.026;8.540;2023-02-01T08:17:47;44395.69;;;-145.42;100.00
49367;BME280;35245;52.026;8.540;2023-02-01T08:20:15;46248.38;;;-145.42;100.00
49367;BME280;35245;52.026;8.540;2023-02-01T08:22:42;47107.69;;;-145.42;100.00
49367;BME280;35245;52.026;8.540;2023-02-01T08:25:11;47149.28;;;-145.42;100.00
49367;BME280;35245;52.026;8.540;2023-02-01T08:27:38;46988.88;;;-145.42;100.00
49367;BME280;35245;52.026;8.540;2023-02-01T08:30:07;48270.28;;;-145.42;100.00
49367;BME280;35245;52.026;8.540;2023-02-01T08:32:35;44498.59;;;-145.42;100.00
49367;BME280;35245;52.026;8.540;2023-02-01T08:35:05;44073.16;;;-145.42;100.00
49367;BME280;35245;52.026;8.540;2023-02-01T08:37:32;45828.66;;;-145.42;100.00
49367;BME280;35245;52.026;8.540;2023-02-01T08:40:00;46214.72;;;-145.42;100.00
49367;BME280;35245;52.026;8.540;2023-02-01T08:42:28;47895.91;;;-145.42;100.00
49367;BME280;35245;52.026;8.540;2023-02-01T08:45:13;46404.78;;;-145.42;100.00
49367;BME280;35245;52.026;8.540;2023-02-01T08:47:40;45688.13;;;-145.42;100.00
49367;BME280;35245;52.026;8.540;2023-02-01T08:50:10;45709.91;;;-145.42;100.00
49367;BME280;35245;52.026;8.540;2023-02-01T08:52:37;46192.94;;;-145.42;100.00
49367;BME280;35245;52.026;8.540;2023-02-01T08:55:05;47119.56;;;-145.42;100.00
49367;BME280;35245;52.026;8.540;2023-02-01T08:57:34;48060.31;;;-145.42;100.00
49367;BME280;35245;52.026;8.540;2023-02-01T09:00:02;48290.09;;;-145.42;100.00
49367;BME280;35245;52.026;8.540;2023-02-01T09:02:30;48288.09;;;-145.42;100.00
49367;BME280;35245;52.026;8.540;2023-02-01T09:04:57;48662.50;;;-145.42;100.00
49367;BME280;35245;52.026;8.540;2023-02-01T09:07:24;48674.38;;;-145.42;100.00
49367;BME280;35245;52.026;8.540;2023-02-01T09:09:52;48737.78;;;-145.42;100.00
49367;BME280;35245;52.026;8.540;2023-02-01T09:12:20;49223.16;;;-145.42;100.00
49367;BME280;35245;52.026;8.540;2023-02-01T09:14:49;49308.38;;;-145.42;100.00
49367;BME280;35245;52.026;8.540;2023-02-01T09:17:16;49635.28;;;-145.42;100.00
49367;BME280;35245;52.026;8.540;2023-02-01T09:19:43;49546.13;;;-145.42;100.00
49367;BME280;35245;52.026;8.540;2023-02-01T09:22:10;49625.38;;;-145.42;100.00
49367;BME280;35245;52.026;8.540;2023-02-01T09:24:38;49734.38;;;-145.42;100.00
49367;BME280;35245;52.026;8.540;2023-02-01T09:27:05;49730.41;;;-145.42;100.00
49367;BME280;35245;52.026;8.540;2023-02-01T09:29:32;50166.38;;;-145.42;100.00
49367;BME280;35245;52.026;8.540;2023-02-01T09:32:01;50279.34;;;-145.42;100.00
49367;BME280;35245;52.026;8.540;2023-02-01T09:34:28;50249.63;;;-145.42;100.00
49367;BME280;35245;52.026;8.540;2023-02-01T09:36:56;50275.38;;;-145.42;100.00
49367;BME280;35245;52.026;8.540;2023-02-01T09:39:23;50194.13;;;-145.42;100.00
49367;BME280;35245;52.026;8.540;2023-02-01T09:42:04;50271.41;;;-145.42;100.00
49367;BME280;35245;52.026;8.540;2023-02-01T09:45:00;50406.19;;;-145.42;100.00
49367;BME280;35245;52.026;8.540;2023-02-01T09:47:31;50348.72;;;-145.42;100.00
49367;BME280;35245;52.026;8.540;2023-02-01T09:50:04;50394.28;;;-145.42;100.00
49367;BME280;35245;52.026;8.540;2023-02-01T09:52:36;50435.91;;;-145.42;100.00
49367;BME280;35245;52.026;8.540;2023-02-01T09:55:11;50426.00;;;-145.42;100.00
49367;BME280;35245;52.026;8.540;2023-02-01T09:57:49;50330.88;;;-145.42;100.00
49367;BME280;35245;52.026;8.540;2023-02-01T10:00:24;50578.59;;;-145.42;100.00
49367;BME280;35245;52.026;8.540;2023-02-01T10:02:55;50396.28;;;-145.42;100.00
49367;BME280;35245;52.026;8.540;2023-02-01T10:05:53;50618.25;;;-145.42;100.00
49367;BME280;35245;52.026;8.540;2023-02-01T10:08:33;49886.97;;;-145.42;100.00
49367;BME280;35245;52.026;8.540;2023-02-01T10:11:16;49869.13;;;-145.42;100.00
49367;BME280;35245;52.026;8.540;2023-02-01T10:13:55;49817.59;;;-145.42;100.00
49367;BME280;35245;52.026;8.540;2023-02-01T10:16:39;49772.03;;;-145.42;100.00
49367;BME280;35245;52.026;8.540;2023-02-01T10:19:32;49815.63;;;-145.42;100.00
49367;BME280;35245;52.026;8.540;2023-02-01T10:22:07;49940.47;;;-145.42;100.00
49367;BME280;35245;52.026;8.540;2023-02-01T10:24:40;50073.25;;;-145.42;100.00
49367;BME280;35245;52.026;8.540;2023-02-01T10:27:15;50154.50;;;-145.42;100.00
49367;BME280;35245;52.026;8.540;2023-02-01T10:29:51;50005.84;;;-145.42;100.00
49367;BME280;35245;52.026;8.540;2023-02-01T10:32:31;49942.44;;;-145.42;100.00
49367;BME280;35245;52.026;8.540;2023-02-01T10:35:10;50055.41;;;-145.42;100.00
49367;BME280;35245;52.026;8.540;2023-02-01T10:37:41;49871.09;;;-145.42;100.00
49367;BME280;35245;52.026;8.540;2023-02-01T10:40:19;50110.88;;;-145.42;100.00
49367;BME280;35245;52.026;8.540;2023-02-01T10:42:48;49785.91;;;-145.42;100.00
49367;BME280;35245;52.026;8.540;2023-02-01T10:45:19;49958.28;;;-145.42;100.00
49367;BME280;35245;52.026;8.540;2023-02-01T10:47:50;49750.22;;;-145.42;100.00
49367;BME280;35245;52.026;8.540;2023-02-01T10:50:33;49766.06;;;-145.42;100.00
49367;BME280;35245;52.026;8.540;2023-02-01T10:53:05;49431.22;;;-145.42;100.00
49367;BME280;35245;52.026;8.540;2023-02-01T10:55:46;49764.09;;;-145.42;100.00
49367;BME280;35245;52.026;8.540;2023-02-01T10:58:17;49645.22;;;-145.42;100.00
49367;BME280;35245;52.026;8.540;2023-02-01T11:00:52;49724.47;;;-145.42;100.00
49367;BME280;35245;52.026;8.540;2023-02-01T11:03:41;49841.38;;;-145.42;100.00
49367;BME280;35245;52.026;8.540;2023-02-01T11:06:22;49768.06;;;-145.42;100.00
49367;BME280;35245;52.026;8.540;2023-02-01T11:08:52;49924.59;;;-145.42;100.00
49367;BME280;35245;52.026;8.540;2023-02-01T11:11:20;49748.25;;;-145.42;100.00
49367;BME280;35245;52.026;8.540;2023-02-01T11:13:57;49918.66;;;-145.42;100.00
49367;BME280;35245;52.026;8.540;2023-02-01T11:16:33;50005.84;;;-145.42;100.00
49367;BME280;35245;52.026;8.540;2023-02-01T11:19:01;49738.34;;;-145.42;100.00
49367;BME280;35245;52.026;8.540;2023-02-01T11:21:30;49811.66;;;-145.42;100.00
49367;BME280;35245;52.026;8.540;2023-02-01T11:24:02;49712.56;;;-145.42;100.00
49367;BME280;35245;52.026;8.540;2023-02-01T11:26:30;49853.28;;;-145.42;100.00
49367;BME280;35245;52.026;8.540;2023-02-01T11:29:03;49837.41;;;-145.42;100.00
49367;BME280;35245;52.026;8.540;2023-02-01T11:31:31;49593.69;;;-145.42;100.00
49367;BME280;35245;52.026;8.540;2023-02-01T11:34:08;49581.78;;;-145.42;100.00
49367;BME280;35245;52.026;8.540;2023-02-01T11:36:40;49587.75;;;-145.42;100.00
49367;BME280;35245;52.026;8.540;2023-02-01T11:39:19;49593.69;;;-145.42;100.00
49367;BME280;35245;52.026;8.540;2023-02-01T11:42:00;49684.84;;;-145.42;100.00
49367;BME280;35245;52.026;8.540;2023-02-01T11:44:34;49385.63;;;-145.42;100.00
49367;BME280;35245;52.026;8.540;2023-02-01T11:47:26;49379.69;;;-145.42;100.00
49367;BME280;35245;52.026;8.540;2023-02-01T11:49:55;48387.16;;;-145.42;100.00
49367;BME280;35245;52.026;8.540;2023-02-01T11:52:44;46775.03;;;-145.42;100.00
49367;BME280;35245;52.026;8.540;2023-02-01T11:55:48;42755.53;;;-145.42;100.00
49367;BME280;35245;52.026;8.540;2023-02-01T11:58:52;39473.34;;;-145.42;100.00
49367;BME280;35245;52.026;8.540;2023-02-01T12:01:52;24014.72;;;-145.42;100.00
49367;BME280;35245;52.026;8.540;2023-02-01T12:04:58;12440.69;;;-145.42;100.00
49367;BME280;35245;52.026;8.540;2023-02-01T12:08:17;-14100.28;;;-145.42;100.00
49367;BME280;35245;52.026;8.540;2023-02-01T12:11:03;-14100.28;;;-145.42;100.00
49367;BME280;35245;52.026;8.540;2023-02-01T12:13:47;-11602.91;;;-145.42;100.00
49367;BME280;35245;52.026;8.540;2023-02-01T12:16:29;-12601.47;;;-145.42;100.00
49367;BME280;35245;52.026;8.540;2023-02-01T12:19:28;12481.91;;;-145.42;100.00
49367;BME280;35245;52.026;8.540;2023-02-01T12:22:12;-14100.28;;;-145.42;100.00
49367;BME280;35245;52.026;8.540;2023-02-01T12:25:22;-14100.28;;;-145.42;100.00
49367;BME280;35245;52.026;8.540;2023-02-01T12:28:35;-1602.97;;;-145.42;100.00
49367;BME280;35245;52.026;8.540;2023-02-01T12:31:29;10180.22;;;-145.42;100.00
49367;BME280;35245;52.026;8.540;2023-02-01T12:34:22;2905.47;;;-145.42;100.00
49367;BME280;35245;52.026;8.540;2023-02-01T12:37:01;-3605.06;;;-145.42;100.00
49367;BME280;35245;52.026;8.540;2023-02-01T12:39:40;-2353.88;;;-145.42;100.00
49367;BME280;35245;52.026;8.540;2023-02-01T12:42:18;-2854.41;;;-145.42;100.00
49367;BME280;35245;52.026;8.540;2023-02-01T12:44:52;-2854.41;;;-145.42;100.00
49367;BME280;35245;52.026;8.540;2023-02-01T12:47:27;-4605.69;;;-145.42;100.00
49367;BME280;35245;52.026;8.540;2023-02-01T12:50:00;-1102.31;;;-145.42;100.00
49367;BME280;35245;52.026;8.540;2023-02-01T12:52:37;8924.97;;;-145.42;100.00
49367;BME280;35245;52.026;8.540;2023-02-01T12:55:16;-14100.28;;;-145.42;100.00
49367;BME280;35245;52.026;8.540;2023-02-01T12:57:53;-14100.28;;;-145.42;100.00
49367;BME280;35245;52.026;8.540;2023-02-01T13:00:27;149.69;;;-145.42;100.00
49367;BME280;35245;52.026;8.540;2023-02-01T13:03:05;2153.72;;;-145.42;100.00
49367;BME280;35245;52.026;8.540;2023-02-01T13:05:47;-9854.81;;;-145.42;100.00